Thunder radar more information blitzortung!


Radar de pluja more information rain snow radar


Visita la nostra xarxa de llocs de meteo:

Template documentation
and downloads

And another site



No particular awareness of the weather is required.    There are no Weather-warnings

Pagina Historial Weather Underground text

Diari Resum Desembre 08, 2017 Unitats:  Mètric    Imperial   Tant
« Previous Dia
SegĂźent Dia »
Diari Setmana Mensual Anual Personalitzada
  Maxima: Minima: Media:
Temperatura: 8.7 °C 2.5 °C 5.9 °C
Punt de rosada: 0.4 °C -4.5 °C -1.3 °C
Humitat: 69 % 55 % 60 %
Wind Speed: 13.7 km/h 0.0 km/h 4.2 km/h
RĂ fegues de vent: 13.7 km/h - -
Vent:- - SSE
Pression baro: 1026.0 hPa 1018.8 hPa -
Precipitacions: 0.0 mm    
Historical Graphs
 
 
Dades de taula per Desembre 08, 2017
Temps Temperatura Punt de rosada Pression baro Vent Wind Speed RĂ fegues de vent Humitat Rainfall Rate (Hourly)
00:00 5.2 °C -2.9 °C 1026.0 hPa Calm     56 % 0.0 mm
00:01 5.1 °C -2.9 °C 1026.0 hPa SW 3.7 km/h 3.7 km/h 56 % 0.0 mm
00:05 2.5 °C -4.5 °C 1022.9 hPa WSW 1.6 km/h 4.8 km/h 60 % 0.0 mm
00:06 5.0 °C -3.1 °C 1026.0 hPa SW 1.9 km/h 1.9 km/h 56 % 0.0 mm
00:15 2.6 °C -4.2 °C 1022.9 hPa WSW 3.2 km/h 3.2 km/h 61 % 0.0 mm
00:25 2.6 °C -4.2 °C 1022.9 hPa WSW 1.6 km/h 3.2 km/h 61 % 0.0 mm
00:35 2.5 °C -4.3 °C 1022.9 hPa NW 1.6 km/h 3.2 km/h 61 % 0.0 mm
00:45 2.5 °C -4.3 °C 1022.9 hPa North 3.2 km/h 3.2 km/h 61 % 0.0 mm
00:55 2.6 °C -4.2 °C 1022.9 hPa NNW 1.6 km/h 3.2 km/h 61 % 0.0 mm
01:05 2.6 °C -3.9 °C 1022.9 hPa Calm   3.2 km/h 62 % 0.0 mm
01:25 2.7 °C -3.9 °C 1022.9 hPa NNE 1.6 km/h 4.8 km/h 62 % 0.0 mm
01:35 2.6 °C -3.9 °C 1022.9 hPa NNE 1.6 km/h 3.2 km/h 62 % 0.0 mm
01:45 2.7 °C -3.9 °C 1022.9 hPa NNE 1.6 km/h 4.8 km/h 62 % 0.0 mm
01:55 2.8 °C -3.8 °C 1022.9 hPa NE 3.2 km/h 4.8 km/h 62 % 0.0 mm
02:05 2.8 °C -3.8 °C 1022.9 hPa NE 3.2 km/h 3.2 km/h 62 % 0.0 mm
08:06 2.8 °C -3.8 °C 1022.9 hPa Calm   1.4 km/h 62 % 0.0 mm
08:21 3.0 °C -3.6 °C 1022.9 hPa NNE 5.8 km/h 5.8 km/h 62 % 0.0 mm
08:26 3.0 °C -3.6 °C 1022.9 hPa ENE 5.6 km/h 5.6 km/h 62 % 0.0 mm
08:36 2.9 °C -3.7 °C 1022.9 hPa NW 6.1 km/h 6.1 km/h 62 % 0.0 mm
08:38 2.9 °C -3.7 °C 1022.9 hPa West 5.6 km/h 5.6 km/h 62 % 0.0 mm
08:43 3.0 °C -3.6 °C 1022.9 hPa North 7.4 km/h 7.4 km/h 62 % 0.0 mm
08:48 3.1 °C -3.5 °C 1022.9 hPa East 3.7 km/h 3.7 km/h 62 % 0.0 mm
08:53 3.1 °C -3.5 °C 1022.9 hPa NNW 5.6 km/h 5.6 km/h 62 % 0.0 mm
08:58 3.2 °C -3.4 °C 1022.9 hPa NNW 5.6 km/h 5.6 km/h 62 % 0.0 mm
09:03 3.3 °C -3.5 °C 1022.9 hPa North 4.2 km/h 4.2 km/h 61 % 0.0 mm
09:08 3.4 °C -3.4 °C 1022.9 hPa North 3.7 km/h 3.7 km/h 61 % 0.0 mm
09:13 3.5 °C -3.3 °C 1022.9 hPa NNE 6.9 km/h 6.9 km/h 61 % 0.0 mm
09:18 3.5 °C -3.3 °C 1022.9 hPa North 4.2 km/h 4.2 km/h 61 % 0.0 mm
09:23 3.7 °C -3.1 °C 1022.9 hPa NNE 3.9 km/h 3.9 km/h 61 % 0.0 mm
09:28 3.8 °C -3.1 °C 1022.9 hPa SSE 5.6 km/h 5.6 km/h 61 % 0.0 mm
09:33 4.2 °C -2.7 °C 1022.9 hPa East 3.9 km/h 3.9 km/h 61 % 0.0 mm
09:38 4.3 °C -2.6 °C 1022.9 hPa ENE 5.6 km/h 5.6 km/h 61 % 0.0 mm
09:43 4.6 °C -2.3 °C 1022.9 hPa West 5.6 km/h 5.6 km/h 61 % 0.0 mm
09:48 4.6 °C -2.3 °C 1022.9 hPa ESE 9.3 km/h 9.3 km/h 61 % 0.0 mm
09:53 4.6 °C -2.5 °C 1022.9 hPa NNE 4.2 km/h 4.2 km/h 60 % 0.0 mm
09:58 4.7 °C -2.4 °C 1022.9 hPa NNW 5.6 km/h 5.6 km/h 60 % 0.0 mm
10:03 4.7 °C -2.4 °C 1022.9 hPa NNW 3.7 km/h 3.7 km/h 60 % 0.0 mm
10:08 4.8 °C -2.3 °C 1022.9 hPa NNE 3.7 km/h 3.7 km/h 60 % 0.0 mm
10:09 4.8 °C -2.3 °C 1022.9 hPa NNE 3.9 km/h 3.9 km/h 60 % 0.0 mm
10:14 5.0 °C -2.1 °C 1022.9 hPa NE 3.7 km/h   60 % 0.0 mm
10:19 5.1 °C -2.1 °C 1022.9 hPa NNW 3.7 km/h 3.7 km/h 60 % 0.0 mm
10:24 5.2 °C -1.9 °C 1022.9 hPa WNW 3.7 km/h 3.7 km/h 60 % 0.0 mm
10:29 5.2 °C -1.9 °C 1022.9 hPa ESE 5.8 km/h 5.8 km/h 60 % 0.0 mm
10:34 5.3 °C -1.8 °C 1022.9 hPa NNE 4.7 km/h 4.7 km/h 60 % 0.0 mm
10:39 5.4 °C -2.0 °C 1022.9 hPa NNE 3.9 km/h 3.9 km/h 59 % 0.0 mm
10:44 5.4 °C -2.0 °C 1022.9 hPa NE 5.6 km/h 5.6 km/h 59 % 0.0 mm
10:49 5.5 °C -1.9 °C 1022.9 hPa NNW 5.6 km/h 5.6 km/h 59 % 0.0 mm
10:54 5.5 °C -1.9 °C 1022.9 hPa WNW 7.4 km/h 7.4 km/h 59 % 0.0 mm
10:59 5.6 °C -1.8 °C 1021.9 hPa NNW 3.7 km/h 3.7 km/h 59 % 0.0 mm
11:04 5.6 °C -1.8 °C 1021.9 hPa NNW 7.4 km/h 7.4 km/h 59 % 0.0 mm
11:09 5.7 °C -1.7 °C 1021.9 hPa NNE 7.6 km/h 7.6 km/h 59 % 0.0 mm
11:14 5.7 °C -1.7 °C 1021.9 hPa NNW 9.3 km/h 9.3 km/h 59 % 0.0 mm
11:19 5.8 °C -1.8 °C 1021.9 hPa ENE 6.9 km/h 6.9 km/h 58 % 0.0 mm
11:24 5.8 °C -1.8 °C 1021.9 hPa NNW 5.6 km/h 5.6 km/h 58 % 0.0 mm
11:29 5.8 °C -1.8 °C 1021.9 hPa NNW 7.4 km/h 7.4 km/h 58 % 0.0 mm
11:34 5.9 °C -1.7 °C 1021.9 hPa South 9.3 km/h 9.3 km/h 58 % 0.0 mm
11:39 6.0 °C -1.7 °C 1021.9 hPa ENE 4.7 km/h 4.7 km/h 58 % 0.0 mm
11:44 6.0 °C -1.7 °C 1021.9 hPa SW 5.6 km/h 5.8 km/h 58 % 0.0 mm
11:49 6.1 °C -1.6 °C 1021.9 hPa NNE 9.3 km/h 9.3 km/h 58 % 0.0 mm
11:54 6.1 °C -1.6 °C 1021.9 hPa NNW 5.6 km/h 5.6 km/h 58 % 0.0 mm
11:59 6.1 °C -1.8 °C 1021.9 hPa ESE 5.6 km/h 5.6 km/h 57 % 0.0 mm
12:04 6.0 °C -1.9 °C 1021.9 hPa NNE 9.3 km/h 9.3 km/h 57 % 0.0 mm
12:09 6.0 °C -1.9 °C 1021.9 hPa NE 7.4 km/h 7.4 km/h 57 % 0.0 mm
12:14 6.1 °C -1.8 °C 1021.9 hPa West 9.3 km/h 9.3 km/h 57 % 0.0 mm
12:19 6.1 °C -1.8 °C 1021.9 hPa NNE 7.4 km/h 7.4 km/h 57 % 0.0 mm
12:24 6.1 °C -1.8 °C 1021.9 hPa ESE 9.3 km/h 9.3 km/h 57 % 0.0 mm
12:29 6.2 °C -1.7 °C 1021.9 hPa NNE 9.0 km/h 9.0 km/h 57 % 0.0 mm
12:34 6.3 °C -1.6 °C 1021.9 hPa NE 6.9 km/h 6.9 km/h 57 % 0.0 mm
12:39 6.4 °C -1.5 °C 1021.9 hPa NE 5.6 km/h 5.6 km/h 57 % 0.0 mm
12:44 6.5 °C -1.4 °C 1021.9 hPa ENE 7.4 km/h 7.4 km/h 57 % 0.0 mm
12:49 6.5 °C -1.4 °C 1021.9 hPa NNE 7.4 km/h 7.4 km/h 57 % 0.0 mm
12:54 6.5 °C -1.4 °C 1021.9 hPa WNW 3.7 km/h 3.9 km/h 57 % 0.0 mm
12:59 6.6 °C -1.3 °C 1021.9 hPa NE 3.7 km/h 3.7 km/h 57 % 0.0 mm
13:04 6.6 °C -1.3 °C 1021.9 hPa ENE 7.4 km/h 7.4 km/h 57 % 0.0 mm
13:09 6.7 °C -1.2 °C 1021.9 hPa North 9.5 km/h 9.5 km/h 57 % 0.0 mm
13:14 6.8 °C -1.1 °C 1021.9 hPa NNE 7.4 km/h 7.4 km/h 57 % 0.0 mm
13:19 6.9 °C -1.1 °C 1021.9 hPa East 5.6 km/h 5.6 km/h 57 % 0.0 mm
13:24 7.0 °C -0.9 °C 1021.9 hPa NW 6.1 km/h 6.1 km/h 57 % 0.0 mm
13:29 7.0 °C -0.9 °C 1020.9 hPa NNE 7.4 km/h 7.4 km/h 57 % 0.0 mm
13:34 7.0 °C -1.2 °C 1020.9 hPa ENE 7.4 km/h 7.4 km/h 56 % 0.0 mm
13:44 7.1 °C -1.1 °C 1020.9 hPa NE 13.7 km/h 13.7 km/h 56 % 0.0 mm
13:49 7.2 °C -1.0 °C 1020.9 hPa NE 11.1 km/h 11.1 km/h 56 % 0.0 mm
13:54 7.2 °C -1.0 °C 1020.9 hPa NNE 11.1 km/h 11.1 km/h 56 % 0.0 mm
13:59 7.3 °C -0.9 °C 1020.9 hPa ESE 4.2 km/h 5.0 km/h 56 % 0.0 mm
14:04 7.4 °C -0.8 °C 1020.9 hPa NW 5.6 km/h 5.6 km/h 56 % 0.0 mm
14:09 7.5 °C -0.7 °C 1020.9 hPa NW 7.4 km/h 7.4 km/h 56 % 0.0 mm
14:14 7.6 °C -0.6 °C 1019.9 hPa NNW 9.3 km/h 9.3 km/h 56 % 0.0 mm
14:19 7.6 °C -0.6 °C 1019.9 hPa ENE 4.7 km/h 4.7 km/h 56 % 0.0 mm
14:24 7.6 °C -0.6 °C 1019.9 hPa ENE 9.3 km/h 9.3 km/h 56 % 0.0 mm
14:29 7.6 °C -0.6 °C 1020.9 hPa NNE 7.9 km/h 7.9 km/h 56 % 0.0 mm
14:34 7.6 °C -0.6 °C 1020.9 hPa NNW 9.3 km/h 9.3 km/h 56 % 0.0 mm
14:39 7.7 °C -0.6 °C 1020.9 hPa ENE 9.3 km/h 9.3 km/h 56 % 0.0 mm
14:44 7.9 °C -0.3 °C 1020.9 hPa ENE 5.6 km/h 5.6 km/h 56 % 0.0 mm
14:49 8.1 °C -0.2 °C 1020.9 hPa NNW 1.9 km/h 1.9 km/h 56 % 0.0 mm
14:54 8.2 °C -0.1 °C 1020.9 hPa NNE 3.5 km/h 3.5 km/h 56 % 0.0 mm
15:04 8.4 °C 0.1 °C 1019.9 hPa ENE 6.4 km/h 6.4 km/h 56 % 0.0 mm
15:09 8.4 °C 0.1 °C 1019.9 hPa NE 7.9 km/h 7.9 km/h 56 % 0.0 mm
15:14 8.4 °C 0.1 °C 1020.9 hPa North 2.6 km/h 2.6 km/h 56 % 0.0 mm
15:19 8.5 °C 0.2 °C 1020.9 hPa NNE 9.3 km/h 9.3 km/h 56 % 0.0 mm
15:24 8.5 °C 0.2 °C 1020.9 hPa NE 13.0 km/h 13.0 km/h 56 % 0.0 mm
15:29 8.6 °C 0.3 °C 1019.9 hPa NNE 9.3 km/h 9.3 km/h 56 % 0.0 mm
15:34 8.7 °C 0.4 °C 1019.9 hPa NNE 7.4 km/h 7.4 km/h 56 % 0.0 mm
15:39 8.7 °C 0.4 °C 1019.9 hPa NNE 5.6 km/h 5.6 km/h 56 % 0.0 mm
15:44 8.7 °C 0.4 °C 1020.9 hPa NNE 7.4 km/h 7.4 km/h 56 % 0.0 mm
15:49 8.7 °C 0.4 °C 1020.9 hPa ENE 11.1 km/h 11.1 km/h 56 % 0.0 mm
15:54 8.6 °C 0.1 °C 1020.9 hPa North 5.0 km/h 5.0 km/h 55 % 0.0 mm
15:59 8.6 °C 0.3 °C 1020.9 hPa NNE 5.3 km/h 5.3 km/h 56 % 0.0 mm
16:04 8.6 °C 0.3 °C 1020.9 hPa NNW 5.6 km/h 5.6 km/h 56 % 0.0 mm
16:09 8.5 °C 0.2 °C 1020.9 hPa WNW 3.7 km/h 3.7 km/h 56 % 0.0 mm
16:14 8.5 °C 0.2 °C 1020.9 hPa North 3.7 km/h 3.7 km/h 56 % 0.0 mm
16:19 8.5 °C 0.2 °C 1020.9 hPa NNE 6.4 km/h 6.4 km/h 56 % 0.0 mm
16:24 8.5 °C 0.2 °C 1020.9 hPa NNW 3.7 km/h 3.7 km/h 56 % 0.0 mm
16:29 8.6 °C 0.3 °C 1020.9 hPa NNE 3.7 km/h 3.7 km/h 56 % 0.0 mm
16:34 8.5 °C 0.2 °C 1020.9 hPa West 3.7 km/h 3.7 km/h 56 % 0.0 mm
16:39 8.5 °C 0.2 °C 1020.9 hPa NNE 7.4 km/h 7.4 km/h 56 % 0.0 mm
16:44 8.4 °C 0.1 °C 1020.9 hPa ENE 2.3 km/h 2.3 km/h 56 % 0.0 mm
16:49 8.3 °C 0.0 °C 1020.9 hPa NNE 5.6 km/h 5.6 km/h 56 % 0.0 mm
16:54 8.2 °C -0.1 °C 1020.9 hPa ENE 3.7 km/h 3.7 km/h 56 % 0.0 mm
16:59 8.1 °C -0.2 °C 1020.9 hPa NNE 3.9 km/h 3.9 km/h 56 % 0.0 mm
17:04 8.0 °C -0.3 °C 1020.9 hPa NNW 3.7 km/h 3.7 km/h 56 % 0.0 mm
17:09 8.0 °C -0.3 °C 1020.9 hPa WNW 1.9 km/h   56 % 0.0 mm
17:14 7.9 °C -0.3 °C 1020.9 hPa North 1.9 km/h   56 % 0.0 mm
17:19 7.8 °C -0.2 °C 1020.9 hPa NNW 1.9 km/h   57 % 0.0 mm
17:24 7.6 °C -0.4 °C 1020.9 hPa NNE 1.9 km/h   57 % 0.0 mm
17:29 7.5 °C -0.5 °C 1020.9 hPa ENE 1.9 km/h   57 % 0.0 mm
17:34 7.4 °C -0.6 °C 1020.9 hPa NE 1.9 km/h 1.9 km/h 57 % 0.0 mm
17:39 7.4 °C -0.6 °C 1020.9 hPa NNE 1.9 km/h 1.9 km/h 57 % 0.0 mm
17:44 7.3 °C -0.4 °C 1021.9 hPa NE 1.9 km/h   58 % 0.0 mm
17:49 7.2 °C -0.5 °C 1021.9 hPa NNW 3.7 km/h 3.7 km/h 58 % 0.0 mm
17:54 7.2 °C -0.5 °C 1021.9 hPa Calm     58 % 0.0 mm
17:59 7.0 °C -0.7 °C 1021.9 hPa SW 3.2 km/h 3.2 km/h 58 % 0.0 mm
18:04 6.9 °C -0.8 °C 1021.9 hPa SSW 3.7 km/h 3.7 km/h 58 % 0.0 mm
18:09 6.9 °C -0.8 °C 1021.9 hPa ESE 3.7 km/h 3.7 km/h 58 % 0.0 mm
18:14 7.1 °C -0.4 °C 1020.9 hPa WSW 4.7 km/h 4.7 km/h 59 % 0.0 mm
18:19 6.8 °C -0.7 °C 1020.9 hPa Calm     59 % 0.0 mm
18:24 6.9 °C -0.6 °C 1020.9 hPa SW 1.9 km/h 1.9 km/h 59 % 0.0 mm
18:29 6.9 °C -0.6 °C 1020.9 hPa WNW 2.3 km/h   59 % 0.0 mm
18:34 7.0 °C -0.5 °C 1020.9 hPa WNW 3.2 km/h   59 % 0.0 mm
18:39 7.0 °C -0.5 °C 1020.9 hPa Calm     59 % 0.0 mm
18:44 7.0 °C -0.2 °C 1020.9 hPa WNW 1.9 km/h   60 % 0.0 mm
18:49 7.0 °C -0.2 °C 1020.9 hPa West 1.9 km/h 1.9 km/h 60 % 0.0 mm
18:54 7.0 °C -0.2 °C 1020.9 hPa NNE 1.9 km/h   60 % 0.0 mm
18:59 7.0 °C -0.2 °C 1021.9 hPa NE 2.3 km/h 2.3 km/h 60 % 0.0 mm
19:04 7.0 °C -0.2 °C 1021.9 hPa WNW 3.7 km/h 3.7 km/h 60 % 0.0 mm
19:05 7.1 °C -0.2 °C 1021.9 hPa NNW 1.6 km/h 3.2 km/h 60 % 0.0 mm
19:10 7.1 °C -0.2 °C 1021.9 hPa Calm     60 % 0.0 mm
19:15 6.9 °C -0.3 °C 1020.9 hPa WSW 1.9 km/h 1.9 km/h 60 % 0.0 mm
19:25 6.5 °C -0.4 °C 1020.9 hPa Calm   3.2 km/h 61 % 0.0 mm
19:30 6.8 °C -0.2 °C 1020.9 hPa WNW 2.3 km/h 2.3 km/h 61 % 0.0 mm
19:35 6.7 °C -0.3 °C 1020.9 hPa Calm   1.6 km/h 61 % 0.0 mm
19:40 6.4 °C -0.6 °C 1020.9 hPa Calm     61 % 0.0 mm
19:45 6.2 °C -0.8 °C 1020.9 hPa WSW 3.7 km/h 3.7 km/h 61 % 0.0 mm
19:50 6.2 °C -0.8 °C 1020.9 hPa WSW 3.7 km/h 3.7 km/h 61 % 0.0 mm
19:55 6.1 °C -0.9 °C 1020.9 hPa WSW 3.7 km/h 3.7 km/h 61 % 0.0 mm
20:00 6.1 °C -0.9 °C 1020.9 hPa Calm     61 % 0.0 mm
20:05 6.0 °C -0.7 °C 1020.9 hPa NNW 1.9 km/h 1.9 km/h 62 % 0.0 mm
20:10 6.0 °C -0.7 °C 1020.9 hPa North 1.9 km/h 1.9 km/h 62 % 0.0 mm
20:15 6.0 °C -0.7 °C 1020.9 hPa NW 1.9 km/h   62 % 0.0 mm
20:20 6.1 °C -0.7 °C 1020.9 hPa NW 1.9 km/h   62 % 0.0 mm
20:25 6.1 °C -0.4 °C 1020.9 hPa NNE 3.7 km/h 3.7 km/h 63 % 0.0 mm
20:30 6.0 °C -0.7 °C 1020.9 hPa NNE 4.7 km/h 4.7 km/h 62 % 0.0 mm
20:35 5.5 °C -1.2 °C 1020.9 hPa ESE 3.7 km/h 3.7 km/h 62 % 0.0 mm
20:40 5.5 °C -1.0 °C 1020.9 hPa NNE 4.2 km/h 4.2 km/h 63 % 0.0 mm
20:45 5.5 °C -1.0 °C 1020.9 hPa NNE 3.7 km/h 3.7 km/h 63 % 0.0 mm
20:50 5.6 °C -0.9 °C 1020.9 hPa Calm     63 % 0.0 mm
20:55 5.6 °C -0.7 °C 1020.9 hPa Calm     64 % 0.0 mm
21:00 5.6 °C -0.7 °C 1020.9 hPa North 1.9 km/h 1.9 km/h 64 % 0.0 mm
21:05 5.5 °C -0.8 °C 1020.9 hPa Calm     64 % 0.0 mm
21:10 5.6 °C -0.7 °C 1020.9 hPa NNE 1.9 km/h 1.9 km/h 64 % 0.0 mm
21:15 5.6 °C -0.7 °C 1020.9 hPa Calm     64 % 0.0 mm
21:20 5.6 °C -0.7 °C 1020.9 hPa NNW 1.4 km/h   64 % 0.0 mm
21:25 5.6 °C -0.7 °C 1020.9 hPa Calm     64 % 0.0 mm
21:40 5.2 °C -1.1 °C 1019.9 hPa NNE 3.7 km/h 3.7 km/h 64 % 0.0 mm
21:45 5.2 °C -0.8 °C 1020.9 hPa WSW 1.9 km/h 1.9 km/h 65 % 0.0 mm
21:50 5.2 °C -0.8 °C 1020.9 hPa WSW 2.6 km/h   65 % 0.0 mm
21:55 5.3 °C -0.8 °C 1020.9 hPa WSW 2.3 km/h 2.3 km/h 65 % 0.0 mm
22:00 5.3 °C -0.8 °C 1019.9 hPa East 1.9 km/h   65 % 0.0 mm
22:05 5.3 °C -0.8 °C 1019.9 hPa WSW 1.9 km/h 1.9 km/h 65 % 0.0 mm
22:10 5.3 °C -0.8 °C 1019.9 hPa East 1.9 km/h   65 % 0.0 mm
22:15 5.3 °C -0.8 °C 1019.9 hPa SW 1.9 km/h 1.9 km/h 65 % 0.0 mm
22:20 5.3 °C -0.6 °C 1019.9 hPa SW 2.6 km/h   66 % 0.0 mm
22:25 5.2 °C -0.8 °C 1019.9 hPa Calm     65 % 0.0 mm
22:30 5.2 °C -0.7 °C 1019.9 hPa Calm     66 % 0.0 mm
22:35 5.1 °C -0.9 °C 1019.9 hPa SW 3.9 km/h 3.9 km/h 65 % 0.0 mm
22:40 4.9 °C -0.9 °C 1019.9 hPa Calm     66 % 0.0 mm
22:45 4.8 °C -1.0 °C 1019.9 hPa WSW 1.9 km/h 1.9 km/h 66 % 0.0 mm
22:48 4.8 °C -1.0 °C 1019.9 hPa West 1.9 km/h   66 % 0.0 mm
22:53 4.8 °C -1.0 °C 1019.9 hPa Calm     66 % 0.0 mm
22:58 4.7 °C -1.1 °C 1019.9 hPa NW 2.6 km/h 2.6 km/h 66 % 0.0 mm
23:03 4.7 °C -1.1 °C 1019.9 hPa NW 1.9 km/h   66 % 0.0 mm
23:08 4.7 °C -1.1 °C 1019.9 hPa Calm     66 % 0.0 mm
23:13 4.7 °C -0.9 °C 1019.9 hPa Calm     67 % 0.0 mm
23:18 4.6 °C -1.0 °C 1019.9 hPa WNW 1.9 km/h   67 % 0.0 mm
23:23 4.5 °C -1.3 °C 1019.9 hPa WSW 1.9 km/h 1.9 km/h 66 % 0.0 mm
23:28 4.6 °C -1.2 °C 1018.8 hPa West 3.9 km/h 3.9 km/h 66 % 0.0 mm
23:33 4.5 °C -1.3 °C 1018.8 hPa WSW 3.7 km/h 3.9 km/h 66 % 0.0 mm
23:38 4.2 °C -1.4 °C 1018.8 hPa WSW 3.7 km/h 3.7 km/h 67 % 0.0 mm
23:43 4.3 °C -1.1 °C 1019.9 hPa NNE 3.7 km/h 3.7 km/h 68 % 0.0 mm
23:48 4.3 °C -1.1 °C 1019.9 hPa SW 1.9 km/h   68 % 0.0 mm
23:53 4.2 °C -1.0 °C 1019.9 hPa SSE 3.7 km/h   69 % 0.0 mm
23:58 4.2 °C -1.0 °C 1019.9 hPa NE 1.9 km/h 1.9 km/h 69 % 0.0 mm
Meteo Sesrovires
Elogis d' Weather Underground - 3.5 mb

Guio original per  Jim McMurry - jmcmurry@mwt.net Adaptat per a la plantilla per  Wim van der Kuil - Leuven-Template.eu

Trobareu la nostra informacio del temps tambe a:

Weather Underground

AWEKAS